sensor_id;sensor_type;location;lat;lon;timestamp;P1;durP1;ratioP1;P2;durP2;ratioP2
55270;SDS011;41132;47.162;9.470;2023-04-03T00:03:55;3.25;;;1.67;;
55270;SDS011;41132;47.162;9.470;2023-04-03T00:06:20;2.03;;;1.20;;
55270;SDS011;41132;47.162;9.470;2023-04-03T00:08:46;1.90;;;1.08;;
55270;SDS011;41132;47.162;9.470;2023-04-03T00:11:12;2.15;;;1.20;;
55270;SDS011;41132;47.162;9.470;2023-04-03T00:13:38;2.67;;;1.30;;
55270;SDS011;41132;47.162;9.470;2023-04-03T00:16:04;2.55;;;1.10;;
55270;SDS011;41132;47.162;9.470;2023-04-03T00:18:30;1.77;;;1.02;;
55270;SDS011;41132;47.162;9.470;2023-04-03T00:20:56;1.67;;;0.98;;
55270;SDS011;41132;47.162;9.470;2023-04-03T00:23:22;1.83;;;1.10;;
55270;SDS011;41132;47.162;9.470;2023-04-03T00:25:48;1.92;;;1.00;;
55270;SDS011;41132;47.162;9.470;2023-04-03T00:28:14;1.45;;;1.00;;
55270;SDS011;41132;47.162;9.470;2023-04-03T00:30:40;1.95;;;1.10;;
55270;SDS011;41132;47.162;9.470;2023-04-03T00:33:06;1.63;;;0.90;;
55270;SDS011;41132;47.162;9.470;2023-04-03T00:35:31;2.42;;;1.10;;
55270;SDS011;41132;47.162;9.470;2023-04-03T00:37:57;1.20;;;0.93;;
55270;SDS011;41132;47.162;9.470;2023-04-03T00:40:24;1.80;;;0.90;;
55270;SDS011;41132;47.162;9.470;2023-04-03T00:42:54;1.75;;;0.90;;
55270;SDS011;41132;47.162;9.470;2023-04-03T00:45:23;1.92;;;1.00;;
55270;SDS011;41132;47.162;9.470;2023-04-03T00:47:52;1.80;;;1.00;;
55270;SDS011;41132;47.162;9.470;2023-04-03T00:50:18;1.35;;;0.98;;
55270;SDS011;41132;47.162;9.470;2023-04-03T00:52:43;0.75;;;0.70;;
55270;SDS011;41132;47.162;9.470;2023-04-03T00:55:11;1.13;;;0.77;;
55270;SDS011;41132;47.162;9.470;2023-04-03T00:57:38;0.80;;;0.80;;
55270;SDS011;41132;47.162;9.470;2023-04-03T01:00:08;1.95;;;1.10;;
55270;SDS011;41132;47.162;9.470;2023-04-03T01:02:36;2.35;;;0.80;;
55270;SDS011;41132;47.162;9.470;2023-04-03T01:05:02;2.28;;;1.20;;
55270;SDS011;41132;47.162;9.470;2023-04-03T01:07:31;1.40;;;0.85;;
55270;SDS011;41132;47.162;9.470;2023-04-03T01:10:00;0.90;;;0.80;;
55270;SDS011;41132;47.162;9.470;2023-04-03T01:12:35;1.42;;;0.90;;
55270;SDS011;41132;47.162;9.470;2023-04-03T01:15:06;1.58;;;1.00;;
55270;SDS011;41132;47.162;9.470;2023-04-03T01:17:40;1.70;;;1.00;;
55270;SDS011;41132;47.162;9.470;2023-04-03T01:27:56;2.15;;;1.15;;
55270;SDS011;41132;47.162;9.470;2023-04-03T01:30:24;1.92;;;1.00;;
55270;SDS011;41132;47.162;9.470;2023-04-03T01:32:53;2.13;;;1.10;;
55270;SDS011;41132;47.162;9.470;2023-04-03T01:35:18;2.33;;;1.15;;
55270;SDS011;41132;47.162;9.470;2023-04-03T01:37:44;2.05;;;1.13;;
55270;SDS011;41132;47.162;9.470;2023-04-03T01:40:09;2.58;;;1.30;;
55270;SDS011;41132;47.162;9.470;2023-04-03T01:42:35;3.00;;;1.30;;
55270;SDS011;41132;47.162;9.470;2023-04-03T01:45:01;2.92;;;1.20;;
55270;SDS011;41132;47.162;9.470;2023-04-03T01:47:26;3.83;;;1.42;;
55270;SDS011;41132;47.162;9.470;2023-04-03T01:49:51;2.78;;;1.27;;
55270;SDS011;41132;47.162;9.470;2023-04-03T01:52:17;3.08;;;1.40;;
55270;SDS011;41132;47.162;9.470;2023-04-03T01:54:42;3.17;;;1.40;;
55270;SDS011;41132;47.162;9.470;2023-04-03T02:02:18;2.60;;;1.38;;
55270;SDS011;41132;47.162;9.470;2023-04-03T02:04:45;3.90;;;1.60;;
55270;SDS011;41132;47.162;9.470;2023-04-03T02:07:11;3.45;;;1.58;;
55270;SDS011;41132;47.162;9.470;2023-04-03T02:09:36;3.00;;;1.42;;
55270;SDS011;41132;47.162;9.470;2023-04-03T02:12:02;3.08;;;1.50;;
55270;SDS011;41132;47.162;9.470;2023-04-03T02:14:27;4.20;;;1.55;;
55270;SDS011;41132;47.162;9.470;2023-04-03T02:16:53;3.78;;;1.70;;
55270;SDS011;41132;47.162;9.470;2023-04-03T02:19:18;2.70;;;1.33;;
55270;SDS011;41132;47.162;9.470;2023-04-03T02:21:44;4.78;;;2.08;;
55270;SDS011;41132;47.162;9.470;2023-04-03T02:24:09;15.40;;;2.47;;
55270;SDS011;41132;47.162;9.470;2023-04-03T02:26:35;4.00;;;1.65;;
55270;SDS011;41132;47.162;9.470;2023-04-03T02:29:00;4.03;;;1.73;;
55270;SDS011;41132;47.162;9.470;2023-04-03T02:31:25;4.35;;;1.83;;
55270;SDS011;41132;47.162;9.470;2023-04-03T02:33:51;3.70;;;1.67;;
55270;SDS011;41132;47.162;9.470;2023-04-03T02:36:16;3.38;;;1.70;;
55270;SDS011;41132;47.162;9.470;2023-04-03T02:38:42;4.10;;;2.00;;
55270;SDS011;41132;47.162;9.470;2023-04-03T02:41:08;4.15;;;1.83;;
55270;SDS011;41132;47.162;9.470;2023-04-03T02:43:35;4.15;;;1.90;;
55270;SDS011;41132;47.162;9.470;2023-04-03T02:46:01;4.53;;;2.10;;
55270;SDS011;41132;47.162;9.470;2023-04-03T02:48:26;4.47;;;2.10;;
55270;SDS011;41132;47.162;9.470;2023-04-03T02:58:38;4.40;;;2.05;;
55270;SDS011;41132;47.162;9.470;2023-04-03T03:01:03;5.40;;;2.10;;
55270;SDS011;41132;47.162;9.470;2023-04-03T03:03:28;4.32;;;1.90;;
55270;SDS011;41132;47.162;9.470;2023-04-03T03:24:00;4.88;;;2.22;;
55270;SDS011;41132;47.162;9.470;2023-04-03T03:26:26;4.90;;;2.40;;
55270;SDS011;41132;47.162;9.470;2023-04-03T03:28:52;6.53;;;3.00;;
55270;SDS011;41132;47.162;9.470;2023-04-03T03:31:17;5.20;;;2.70;;
55270;SDS011;41132;47.162;9.470;2023-04-03T03:33:42;4.93;;;2.50;;
55270;SDS011;41132;47.162;9.470;2023-04-03T03:36:08;5.13;;;2.60;;
55270;SDS011;41132;47.162;9.470;2023-04-03T03:38:33;4.57;;;2.55;;
55270;SDS011;41132;47.162;9.470;2023-04-03T03:40:59;5.53;;;2.70;;
55270;SDS011;41132;47.162;9.470;2023-04-03T03:43:24;5.97;;;2.97;;
55270;SDS011;41132;47.162;9.470;2023-04-03T03:45:50;5.05;;;2.50;;
55270;SDS011;41132;47.162;9.470;2023-04-03T03:48:17;5.20;;;2.40;;
55270;SDS011;41132;47.162;9.470;2023-04-03T03:50:43;5.22;;;2.63;;
55270;SDS011;41132;47.162;9.470;2023-04-03T03:53:08;5.05;;;2.60;;
55270;SDS011;41132;47.162;9.470;2023-04-03T04:05:54;5.80;;;2.80;;
55270;SDS011;41132;47.162;9.470;2023-04-03T04:10:55;5.60;;;2.90;;
55270;SDS011;41132;47.162;9.470;2023-04-03T04:13:20;6.47;;;3.08;;
55270;SDS011;41132;47.162;9.470;2023-04-03T04:15:46;5.78;;;2.83;;
55270;SDS011;41132;47.162;9.470;2023-04-03T04:18:11;5.60;;;2.70;;
55270;SDS011;41132;47.162;9.470;2023-04-03T04:20:36;5.85;;;2.78;;
55270;SDS011;41132;47.162;9.470;2023-04-03T04:23:02;5.13;;;2.65;;
55270;SDS011;41132;47.162;9.470;2023-04-03T04:25:27;5.82;;;3.10;;
55270;SDS011;41132;47.162;9.470;2023-04-03T04:30:28;6.78;;;3.60;;
55270;SDS011;41132;47.162;9.470;2023-04-03T04:43:14;6.88;;;3.70;;
55270;SDS011;41132;47.162;9.470;2023-04-03T05:06:17;6.45;;;3.53;;
55270;SDS011;41132;47.162;9.470;2023-04-03T05:14:20;7.50;;;4.40;;
55270;SDS011;41132;47.162;9.470;2023-04-03T05:22:09;8.10;;;3.78;;
55270;SDS011;41132;47.162;9.470;2023-04-03T05:27:10;8.30;;;4.43;;
55270;SDS011;41132;47.162;9.470;2023-04-03T05:47:36;8.07;;;4.43;;
55270;SDS011;41132;47.162;9.470;2023-04-03T05:50:02;7.25;;;3.88;;
55270;SDS011;41132;47.162;9.470;2023-04-03T05:52:31;6.82;;;4.07;;
55270;SDS011;41132;47.162;9.470;2023-04-03T05:55:00;7.40;;;4.15;;
55270;SDS011;41132;47.162;9.470;2023-04-03T06:00:00;7.45;;;4.28;;
55270;SDS011;41132;47.162;9.470;2023-04-03T06:02:27;6.90;;;4.05;;
55270;SDS011;41132;47.162;9.470;2023-04-03T06:04:52;8.40;;;4.45;;
55270;SDS011;41132;47.162;9.470;2023-04-03T06:07:19;9.45;;;5.00;;
55270;SDS011;41132;47.162;9.470;2023-04-03T06:22:42;6.65;;;4.03;;
55270;SDS011;41132;47.162;9.470;2023-04-03T06:25:08;7.22;;;4.03;;
55270;SDS011;41132;47.162;9.470;2023-04-03T06:27:35;7.15;;;4.00;;
55270;SDS011;41132;47.162;9.470;2023-04-03T06:30:00;7.97;;;4.45;;
55270;SDS011;41132;47.162;9.470;2023-04-03T06:32:25;6.90;;;3.92;;
55270;SDS011;41132;47.162;9.470;2023-04-03T06:34:51;8.15;;;4.28;;
55270;SDS011;41132;47.162;9.470;2023-04-03T06:37:19;9.18;;;4.43;;
55270;SDS011;41132;47.162;9.470;2023-04-03T06:39:47;6.68;;;3.95;;
55270;SDS011;41132;47.162;9.470;2023-04-03T06:42:12;7.38;;;4.35;;
55270;SDS011;41132;47.162;9.470;2023-04-03T06:44:38;6.43;;;3.85;;
55270;SDS011;41132;47.162;9.470;2023-04-03T06:47:03;7.70;;;4.70;;
55270;SDS011;41132;47.162;9.470;2023-04-03T08:01:23;8.57;;;4.47;;
55270;SDS011;41132;47.162;9.470;2023-04-03T08:08:59;12.05;;;4.38;;
55270;SDS011;41132;47.162;9.470;2023-04-03T08:11:24;7.97;;;4.57;;
55270;SDS011;41132;47.162;9.470;2023-04-03T08:13:51;8.00;;;4.68;;
55270;SDS011;41132;47.162;9.470;2023-04-03T09:28:11;7.72;;;4.22;;
55270;SDS011;41132;47.162;9.470;2023-04-03T09:30:37;7.70;;;4.13;;
55270;SDS011;41132;47.162;9.470;2023-04-03T09:33:03;7.68;;;4.28;;
55270;SDS011;41132;47.162;9.470;2023-04-03T09:40:38;7.38;;;4.00;;
55270;SDS011;41132;47.162;9.470;2023-04-03T09:56:05;10.40;;;4.13;;
55270;SDS011;41132;47.162;9.470;2023-04-03T09:58:47;7.97;;;4.13;;
55270;SDS011;41132;47.162;9.470;2023-04-03T10:01:28;6.88;;;3.92;;
55270;SDS011;41132;47.162;9.470;2023-04-03T10:06:36;6.93;;;3.83;;
55270;SDS011;41132;47.162;9.470;2023-04-03T10:09:24;6.38;;;3.30;;
55270;SDS011;41132;47.162;9.470;2023-04-03T10:11:59;6.18;;;3.55;;
55270;SDS011;41132;47.162;9.470;2023-04-03T10:14:28;6.97;;;3.20;;
55270;SDS011;41132;47.162;9.470;2023-04-03T10:16:58;6.20;;;3.17;;
55270;SDS011;41132;47.162;9.470;2023-04-03T10:19:32;5.50;;;3.22;;
55270;SDS011;41132;47.162;9.470;2023-04-03T10:22:12;5.97;;;2.97;;
55270;SDS011;41132;47.162;9.470;2023-04-03T10:27:51;6.07;;;3.30;;
55270;SDS011;41132;47.162;9.470;2023-04-03T10:41:16;5.93;;;3.13;;
55270;SDS011;41132;47.162;9.470;2023-04-03T10:43:54;7.80;;;3.25;;
55270;SDS011;41132;47.162;9.470;2023-04-03T10:46:52;7.38;;;3.17;;
55270;SDS011;41132;47.162;9.470;2023-04-03T10:57:42;5.60;;;2.60;;
55270;SDS011;41132;47.162;9.470;2023-04-03T11:00:18;5.45;;;2.55;;
55270;SDS011;41132;47.162;9.470;2023-04-03T11:05:26;6.30;;;2.42;;
55270;SDS011;41132;47.162;9.470;2023-04-03T11:07:57;5.22;;;2.63;;
55270;SDS011;41132;47.162;9.470;2023-04-03T11:10:37;5.20;;;2.30;;
55270;SDS011;41132;47.162;9.470;2023-04-03T11:15:57;5.05;;;2.60;;
55270;SDS011;41132;47.162;9.470;2023-04-03T11:18:43;5.35;;;2.50;;
55270;SDS011;41132;47.162;9.470;2023-04-03T11:23:59;4.85;;;2.28;;
55270;SDS011;41132;47.162;9.470;2023-04-03T11:26:31;5.22;;;2.35;;
55270;SDS011;41132;47.162;9.470;2023-04-03T11:29:03;6.05;;;2.50;;
55270;SDS011;41132;47.162;9.470;2023-04-03T11:31:36;5.65;;;2.67;;
55270;SDS011;41132;47.162;9.470;2023-04-03T11:36:55;5.15;;;2.35;;
55270;SDS011;41132;47.162;9.470;2023-04-03T11:42:15;5.95;;;2.60;;
55270;SDS011;41132;47.162;9.470;2023-04-03T11:44:47;4.32;;;2.25;;
55270;SDS011;41132;47.162;9.470;2023-04-03T11:47:43;5.65;;;2.70;;
55270;SDS011;41132;47.162;9.470;2023-04-03T11:50:31;5.35;;;2.50;;
55270;SDS011;41132;47.162;9.470;2023-04-03T13:24:11;7.72;;;3.33;;
55270;SDS011;41132;47.162;9.470;2023-04-03T13:26:37;5.35;;;2.90;;
55270;SDS011;41132;47.162;9.470;2023-04-03T13:29:06;5.38;;;2.60;;
55270;SDS011;41132;47.162;9.470;2023-04-03T13:31:43;5.22;;;2.50;;
55270;SDS011;41132;47.162;9.470;2023-04-03T13:36:37;5.47;;;2.45;;
55270;SDS011;41132;47.162;9.470;2023-04-03T13:39:06;5.43;;;2.65;;
55270;SDS011;41132;47.162;9.470;2023-04-03T13:41:50;5.40;;;2.40;;
55270;SDS011;41132;47.162;9.470;2023-04-03T13:44:29;5.40;;;2.47;;
55270;SDS011;41132;47.162;9.470;2023-04-03T13:46:56;6.47;;;2.63;;
55270;SDS011;41132;47.162;9.470;2023-04-03T13:51:57;4.80;;;2.35;;
55270;SDS011;41132;47.162;9.470;2023-04-03T13:54:24;5.07;;;2.60;;
55270;SDS011;41132;47.162;9.470;2023-04-03T13:56:56;6.25;;;3.00;;
55270;SDS011;41132;47.162;9.470;2023-04-03T13:59:33;6.05;;;3.00;;
55270;SDS011;41132;47.162;9.470;2023-04-03T14:04:32;5.05;;;2.47;;
55270;SDS011;41132;47.162;9.470;2023-04-03T14:07:09;5.10;;;2.35;;
55270;SDS011;41132;47.162;9.470;2023-04-03T14:09:36;5.32;;;2.42;;
55270;SDS011;41132;47.162;9.470;2023-04-03T14:12:05;5.00;;;2.50;;
55270;SDS011;41132;47.162;9.470;2023-04-03T14:14:34;4.82;;;2.35;;
55270;SDS011;41132;47.162;9.470;2023-04-03T14:17:02;4.82;;;2.33;;
55270;SDS011;41132;47.162;9.470;2023-04-03T14:19:35;6.10;;;2.60;;
55270;SDS011;41132;47.162;9.470;2023-04-03T14:22:06;5.70;;;2.85;;
55270;SDS011;41132;47.162;9.470;2023-04-03T14:24:38;5.22;;;2.00;;
55270;SDS011;41132;47.162;9.470;2023-04-03T14:27:05;5.35;;;2.33;;
55270;SDS011;41132;47.162;9.470;2023-04-03T14:29:40;6.15;;;2.75;;
55270;SDS011;41132;47.162;9.470;2023-04-03T14:32:06;4.75;;;2.28;;
55270;SDS011;41132;47.162;9.470;2023-04-03T14:34:31;5.05;;;2.75;;
55270;SDS011;41132;47.162;9.470;2023-04-03T14:36:57;5.10;;;2.35;;
55270;SDS011;41132;47.162;9.470;2023-04-03T14:39:22;5.53;;;2.40;;
55270;SDS011;41132;47.162;9.470;2023-04-03T14:41:48;8.40;;;2.67;;
55270;SDS011;41132;47.162;9.470;2023-04-03T14:44:13;4.80;;;2.40;;
55270;SDS011;41132;47.162;9.470;2023-04-03T14:46:41;7.15;;;2.30;;
55270;SDS011;41132;47.162;9.470;2023-04-03T14:49:19;4.65;;;2.10;;
55270;SDS011;41132;47.162;9.470;2023-04-03T14:51:46;5.40;;;2.80;;
55270;SDS011;41132;47.162;9.470;2023-04-03T14:54:17;4.60;;;2.42;;
55270;SDS011;41132;47.162;9.470;2023-04-03T14:56:46;4.80;;;2.40;;
55270;SDS011;41132;47.162;9.470;2023-04-03T14:59:12;4.35;;;2.33;;
55270;SDS011;41132;47.162;9.470;2023-04-03T15:01:39;4.65;;;2.22;;
55270;SDS011;41132;47.162;9.470;2023-04-03T15:04:10;5.13;;;2.40;;
55270;SDS011;41132;47.162;9.470;2023-04-03T15:06:40;5.40;;;2.33;;
55270;SDS011;41132;47.162;9.470;2023-04-03T15:09:26;5.30;;;2.40;;
55270;SDS011;41132;47.162;9.470;2023-04-03T15:11:52;6.68;;;2.80;;
55270;SDS011;41132;47.162;9.470;2023-04-03T15:14:19;5.53;;;2.42;;
55270;SDS011;41132;47.162;9.470;2023-04-03T15:16:47;5.05;;;2.47;;
55270;SDS011;41132;47.162;9.470;2023-04-03T15:19:14;4.93;;;2.42;;
55270;SDS011;41132;47.162;9.470;2023-04-03T15:21:40;5.70;;;2.83;;
55270;SDS011;41132;47.162;9.470;2023-04-03T15:24:05;5.15;;;2.65;;
55270;SDS011;41132;47.162;9.470;2023-04-03T15:26:31;4.72;;;2.30;;
55270;SDS011;41132;47.162;9.470;2023-04-03T15:28:57;5.53;;;2.30;;
55270;SDS011;41132;47.162;9.470;2023-04-03T15:31:22;5.18;;;2.50;;
55270;SDS011;41132;47.162;9.470;2023-04-03T15:33:48;5.70;;;2.85;;
55270;SDS011;41132;47.162;9.470;2023-04-03T15:36:13;6.00;;;2.40;;
55270;SDS011;41132;47.162;9.470;2023-04-03T15:38:39;6.25;;;2.58;;
55270;SDS011;41132;47.162;9.470;2023-04-03T15:41:04;5.47;;;2.80;;
55270;SDS011;41132;47.162;9.470;2023-04-03T15:43:30;4.70;;;2.33;;
55270;SDS011;41132;47.162;9.470;2023-04-03T15:45:56;5.43;;;2.50;;
55270;SDS011;41132;47.162;9.470;2023-04-03T15:48:23;8.57;;;2.80;;
55270;SDS011;41132;47.162;9.470;2023-04-03T15:50:49;5.13;;;2.70;;
55270;SDS011;41132;47.162;9.470;2023-04-03T15:53:14;5.80;;;2.60;;
55270;SDS011;41132;47.162;9.470;2023-04-03T15:55:40;5.75;;;2.42;;
55270;SDS011;41132;47.162;9.470;2023-04-03T15:58:06;6.30;;;3.17;;
55270;SDS011;41132;47.162;9.470;2023-04-03T16:00:32;4.97;;;2.60;;
55270;SDS011;41132;47.162;9.470;2023-04-03T16:02:59;5.35;;;2.33;;
55270;SDS011;41132;47.162;9.470;2023-04-03T16:05:29;5.68;;;2.58;;
55270;SDS011;41132;47.162;9.470;2023-04-03T16:07:55;5.63;;;2.72;;
55270;SDS011;41132;47.162;9.470;2023-04-03T16:10:21;6.25;;;2.50;;
55270;SDS011;41132;47.162;9.470;2023-04-03T16:12:47;6.35;;;2.63;;
55270;SDS011;41132;47.162;9.470;2023-04-03T16:15:12;6.75;;;2.60;;
55270;SDS011;41132;47.162;9.470;2023-04-03T16:17:38;5.80;;;2.72;;
55270;SDS011;41132;47.162;9.470;2023-04-03T16:20:06;5.68;;;2.90;;
55270;SDS011;41132;47.162;9.470;2023-04-03T16:22:33;5.30;;;2.90;;
55270;SDS011;41132;47.162;9.470;2023-04-03T16:24:59;4.60;;;2.45;;
55270;SDS011;41132;47.162;9.470;2023-04-03T16:27:25;6.13;;;2.92;;
55270;SDS011;41132;47.162;9.470;2023-04-03T16:29:53;5.15;;;2.70;;
55270;SDS011;41132;47.162;9.470;2023-04-03T16:32:19;5.47;;;2.92;;
55270;SDS011;41132;47.162;9.470;2023-04-03T16:34:45;5.15;;;2.50;;
55270;SDS011;41132;47.162;9.470;2023-04-03T16:37:10;4.93;;;2.53;;
55270;SDS011;41132;47.162;9.470;2023-04-03T16:39:36;5.63;;;2.75;;
55270;SDS011;41132;47.162;9.470;2023-04-03T16:42:01;5.28;;;2.42;;
55270;SDS011;41132;47.162;9.470;2023-04-03T16:44:27;5.90;;;2.75;;
55270;SDS011;41132;47.162;9.470;2023-04-03T16:46:53;5.03;;;2.53;;
55270;SDS011;41132;47.162;9.470;2023-04-03T16:49:18;6.32;;;3.22;;
55270;SDS011;41132;47.162;9.470;2023-04-03T16:51:44;6.18;;;2.55;;
55270;SDS011;41132;47.162;9.470;2023-04-03T16:54:10;5.47;;;2.83;;
55270;SDS011;41132;47.162;9.470;2023-04-03T16:56:37;5.72;;;2.90;;
55270;SDS011;41132;47.162;9.470;2023-04-03T16:59:03;5.75;;;3.17;;
55270;SDS011;41132;47.162;9.470;2023-04-03T17:01:28;5.28;;;2.95;;
55270;SDS011;41132;47.162;9.470;2023-04-03T17:03:53;5.28;;;2.78;;
55270;SDS011;41132;47.162;9.470;2023-04-03T17:06:20;5.57;;;2.67;;
55270;SDS011;41132;47.162;9.470;2023-04-03T17:08:48;5.75;;;2.70;;
55270;SDS011;41132;47.162;9.470;2023-04-03T17:11:15;5.15;;;2.70;;
55270;SDS011;41132;47.162;9.470;2023-04-03T17:13:41;6.32;;;3.10;;
55270;SDS011;41132;47.162;9.470;2023-04-03T17:16:07;6.10;;;2.70;;
55270;SDS011;41132;47.162;9.470;2023-04-03T17:18:36;6.22;;;2.90;;
55270;SDS011;41132;47.162;9.470;2023-04-03T17:21:02;6.13;;;3.03;;
55270;SDS011;41132;47.162;9.470;2023-04-03T17:23:28;6.00;;;3.08;;
55270;SDS011;41132;47.162;9.470;2023-04-03T17:25:54;5.10;;;2.33;;
55270;SDS011;41132;47.162;9.470;2023-04-03T17:28:23;5.72;;;2.88;;
55270;SDS011;41132;47.162;9.470;2023-04-03T17:30:53;5.78;;;2.80;;
55270;SDS011;41132;47.162;9.470;2023-04-03T17:33:22;5.45;;;2.40;;
55270;SDS011;41132;47.162;9.470;2023-04-03T17:35:47;5.82;;;2.85;;
55270;SDS011;41132;47.162;9.470;2023-04-03T17:38:12;5.45;;;2.58;;
55270;SDS011;41132;47.162;9.470;2023-04-03T17:40:38;5.22;;;2.35;;
55270;SDS011;41132;47.162;9.470;2023-04-03T17:43:05;5.03;;;2.55;;
55270;SDS011;41132;47.162;9.470;2023-04-03T17:45:31;6.82;;;3.22;;
55270;SDS011;41132;47.162;9.470;2023-04-03T17:47:56;5.55;;;2.58;;
55270;SDS011;41132;47.162;9.470;2023-04-03T17:50:21;5.60;;;2.53;;
55270;SDS011;41132;47.162;9.470;2023-04-03T17:52:47;5.65;;;2.33;;
55270;SDS011;41132;47.162;9.470;2023-04-03T17:55:12;5.32;;;2.33;;
55270;SDS011;41132;47.162;9.470;2023-04-03T17:57:39;6.07;;;2.72;;
55270;SDS011;41132;47.162;9.470;2023-04-03T18:00:06;5.03;;;2.55;;
55270;SDS011;41132;47.162;9.470;2023-04-03T18:02:33;5.60;;;2.70;;
55270;SDS011;41132;47.162;9.470;2023-04-03T18:04:58;7.18;;;2.80;;
55270;SDS011;41132;47.162;9.470;2023-04-03T18:07:24;6.28;;;2.80;;
55270;SDS011;41132;47.162;9.470;2023-04-03T18:09:51;9.20;;;2.75;;
55270;SDS011;41132;47.162;9.470;2023-04-03T18:12:19;5.10;;;2.42;;
55270;SDS011;41132;47.162;9.470;2023-04-03T18:14:45;5.60;;;2.53;;
55270;SDS011;41132;47.162;9.470;2023-04-03T18:17:10;5.80;;;2.50;;
55270;SDS011;41132;47.162;9.470;2023-04-03T18:19:36;5.95;;;2.50;;
55270;SDS011;41132;47.162;9.470;2023-04-03T18:22:03;5.50;;;2.70;;
55270;SDS011;41132;47.162;9.470;2023-04-03T18:24:36;5.05;;;2.47;;
55270;SDS011;41132;47.162;9.470;2023-04-03T18:27:04;5.45;;;2.65;;
55270;SDS011;41132;47.162;9.470;2023-04-03T18:29:38;5.15;;;2.75;;
55270;SDS011;41132;47.162;9.470;2023-04-03T18:32:06;5.90;;;2.53;;
55270;SDS011;41132;47.162;9.470;2023-04-03T18:34:35;11.10;;;6.97;;
55270;SDS011;41132;47.162;9.470;2023-04-03T18:37:00;4.97;;;2.55;;
55270;SDS011;41132;47.162;9.470;2023-04-03T18:39:27;5.45;;;2.53;;
55270;SDS011;41132;47.162;9.470;2023-04-03T18:41:52;5.03;;;2.53;;
55270;SDS011;41132;47.162;9.470;2023-04-03T18:44:19;5.82;;;2.42;;
55270;SDS011;41132;47.162;9.470;2023-04-03T18:46:47;5.95;;;2.45;;
55270;SDS011;41132;47.162;9.470;2023-04-03T18:49:13;5.80;;;2.13;;
55270;SDS011;41132;47.162;9.470;2023-04-03T18:51:39;5.20;;;2.53;;
55270;SDS011;41132;47.162;9.470;2023-04-03T18:54:05;6.57;;;2.63;;
55270;SDS011;41132;47.162;9.470;2023-04-03T18:56:33;5.18;;;2.50;;
55270;SDS011;41132;47.162;9.470;2023-04-03T18:58:59;5.60;;;2.63;;
55270;SDS011;41132;47.162;9.470;2023-04-03T19:01:26;5.47;;;2.55;;
55270;SDS011;41132;47.162;9.470;2023-04-03T19:03:52;8.05;;;3.03;;
55270;SDS011;41132;47.162;9.470;2023-04-03T19:06:17;5.10;;;2.45;;
55270;SDS011;41132;47.162;9.470;2023-04-03T19:08:43;4.03;;;1.90;;
55270;SDS011;41132;47.162;9.470;2023-04-03T19:11:08;6.10;;;2.50;;
55270;SDS011;41132;47.162;9.470;2023-04-03T19:13:35;5.40;;;2.60;;
55270;SDS011;41132;47.162;9.470;2023-04-03T19:16:02;5.55;;;2.47;;
55270;SDS011;41132;47.162;9.470;2023-04-03T19:18:27;4.63;;;2.22;;
55270;SDS011;41132;47.162;9.470;2023-04-03T19:20:54;5.15;;;2.42;;
55270;SDS011;41132;47.162;9.470;2023-04-03T19:23:21;6.88;;;2.63;;
55270;SDS011;41132;47.162;9.470;2023-04-03T19:25:46;5.22;;;2.15;;
55270;SDS011;41132;47.162;9.470;2023-04-03T19:28:21;4.93;;;2.50;;
55270;SDS011;41132;47.162;9.470;2023-04-03T19:30:47;5.30;;;2.67;;
55270;SDS011;41132;47.162;9.470;2023-04-03T19:33:12;4.70;;;2.30;;
55270;SDS011;41132;47.162;9.470;2023-04-03T19:35:39;5.75;;;2.50;;
55270;SDS011;41132;47.162;9.470;2023-04-03T19:38:05;6.13;;;2.63;;
55270;SDS011;41132;47.162;9.470;2023-04-03T19:40:30;4.95;;;2.35;;
55270;SDS011;41132;47.162;9.470;2023-04-03T19:42:57;5.38;;;2.63;;
55270;SDS011;41132;47.162;9.470;2023-04-03T19:45:23;5.10;;;2.38;;
55270;SDS011;41132;47.162;9.470;2023-04-03T19:47:50;5.72;;;2.50;;
55270;SDS011;41132;47.162;9.470;2023-04-03T19:50:16;4.72;;;2.58;;
55270;SDS011;41132;47.162;9.470;2023-04-03T19:52:42;5.45;;;2.30;;
55270;SDS011;41132;47.162;9.470;2023-04-03T19:55:07;5.97;;;2.40;;
55270;SDS011;41132;47.162;9.470;2023-04-03T19:57:33;5.65;;;2.70;;
55270;SDS011;41132;47.162;9.470;2023-04-03T19:59:59;4.70;;;2.55;;
55270;SDS011;41132;47.162;9.470;2023-04-03T20:02:24;5.38;;;2.38;;
55270;SDS011;41132;47.162;9.470;2023-04-03T20:04:49;4.82;;;2.38;;
55270;SDS011;41132;47.162;9.470;2023-04-03T20:07:15;5.38;;;2.67;;
55270;SDS011;41132;47.162;9.470;2023-04-03T20:09:40;5.30;;;2.60;;
55270;SDS011;41132;47.162;9.470;2023-04-03T20:12:06;7.35;;;2.65;;
55270;SDS011;41132;47.162;9.470;2023-04-03T20:14:34;5.93;;;2.60;;
55270;SDS011;41132;47.162;9.470;2023-04-03T20:17:01;5.13;;;2.70;;
55270;SDS011;41132;47.162;9.470;2023-04-03T20:19:27;8.15;;;3.97;;
55270;SDS011;41132;47.162;9.470;2023-04-03T20:21:52;24.10;;;10.90;;
55270;SDS011;41132;47.162;9.470;2023-04-03T20:24:18;6.00;;;2.47;;
55270;SDS011;41132;47.162;9.470;2023-04-03T20:26:43;5.18;;;2.50;;
55270;SDS011;41132;47.162;9.470;2023-04-03T20:29:10;8.93;;;2.80;;
55270;SDS011;41132;47.162;9.470;2023-04-03T20:31:38;7.28;;;2.40;;
55270;SDS011;41132;47.162;9.470;2023-04-03T20:34:04;5.05;;;2.00;;
55270;SDS011;41132;47.162;9.470;2023-04-03T20:36:29;6.30;;;2.83;;
55270;SDS011;41132;47.162;9.470;2023-04-03T20:38:55;4.60;;;2.30;;
55270;SDS011;41132;47.162;9.470;2023-04-03T20:41:21;5.70;;;2.63;;
55270;SDS011;41132;47.162;9.470;2023-04-03T20:43:47;4.10;;;2.00;;
55270;SDS011;41132;47.162;9.470;2023-04-03T20:46:13;4.70;;;2.22;;
55270;SDS011;41132;47.162;9.470;2023-04-03T20:48:43;4.85;;;2.20;;
55270;SDS011;41132;47.162;9.470;2023-04-03T20:51:13;4.78;;;2.22;;
55270;SDS011;41132;47.162;9.470;2023-04-03T20:53:42;5.28;;;2.28;;
55270;SDS011;41132;47.162;9.470;2023-04-03T20:56:09;5.30;;;2.60;;
55270;SDS011;41132;47.162;9.470;2023-04-03T20:58:35;4.72;;;2.33;;
55270;SDS011;41132;47.162;9.470;2023-04-03T21:01:20;5.15;;;2.40;;
55270;SDS011;41132;47.162;9.470;2023-04-03T21:03:48;5.43;;;2.35;;
55270;SDS011;41132;47.162;9.470;2023-04-03T21:21:00;5.45;;;2.20;;
55270;SDS011;41132;47.162;9.470;2023-04-03T21:23:27;4.80;;;2.20;;
55270;SDS011;41132;47.162;9.470;2023-04-03T21:25:53;5.13;;;2.30;;
55270;SDS011;41132;47.162;9.470;2023-04-03T21:28:19;5.18;;;2.30;;
55270;SDS011;41132;47.162;9.470;2023-04-03T21:30:45;5.35;;;2.40;;
55270;SDS011;41132;47.162;9.470;2023-04-03T21:33:11;4.65;;;2.33;;
55270;SDS011;41132;47.162;9.470;2023-04-03T21:35:36;4.75;;;2.28;;
55270;SDS011;41132;47.162;9.470;2023-04-03T21:38:01;4.97;;;2.22;;
55270;SDS011;41132;47.162;9.470;2023-04-03T21:40:27;4.85;;;2.40;;
55270;SDS011;41132;47.162;9.470;2023-04-03T21:42:53;5.22;;;2.30;;
55270;SDS011;41132;47.162;9.470;2023-04-03T21:45:19;6.13;;;2.20;;
55270;SDS011;41132;47.162;9.470;2023-04-03T21:47:45;5.55;;;2.35;;
55270;SDS011;41132;47.162;9.470;2023-04-03T21:50:10;5.63;;;2.28;;
55270;SDS011;41132;47.162;9.470;2023-04-03T21:52:36;5.18;;;2.60;;
55270;SDS011;41132;47.162;9.470;2023-04-03T21:55:01;4.90;;;2.13;;
55270;SDS011;41132;47.162;9.470;2023-04-03T21:57:27;4.90;;;2.50;;
55270;SDS011;41132;47.162;9.470;2023-04-03T21:59:53;4.78;;;1.90;;
55270;SDS011;41132;47.162;9.470;2023-04-03T22:02:18;4.55;;;2.17;;
55270;SDS011;41132;47.162;9.470;2023-04-03T22:04:44;6.18;;;2.20;;
55270;SDS011;41132;47.162;9.470;2023-04-03T22:07:11;4.57;;;1.92;;
55270;SDS011;41132;47.162;9.470;2023-04-03T22:09:37;4.45;;;2.30;;
55270;SDS011;41132;47.162;9.470;2023-04-03T22:12:02;5.45;;;1.95;;
55270;SDS011;41132;47.162;9.470;2023-04-03T22:14:28;4.00;;;1.90;;
55270;SDS011;41132;47.162;9.470;2023-04-03T22:16:55;5.88;;;1.75;;
55270;SDS011;41132;47.162;9.470;2023-04-03T22:19:21;5.60;;;2.58;;
55270;SDS011;41132;47.162;9.470;2023-04-03T22:21:47;3.90;;;1.80;;
55270;SDS011;41132;47.162;9.470;2023-04-03T22:24:13;3.95;;;1.80;;